Latest Weather Observations for Munglinup West

IDW60801

Issued at 5:32 am WST Thursday 3 September 2015 (issued every 30 minutes, with the page automatically refreshed every 10 minutes)

About weather observations | Map of weather stations | Latest weather observations for WA | Other Formats
Station Details ID: 012044 Name: MUNGLINUP WEST Lat: -33.55 Lon: 120.70 Height: 220.0 m
Data from the previous 72 hours. | See also: Recent months at Munglinup West
Date/Time
WST
Temp
°C
App
Temp
°C
Dew
Point
Rel
Hum
%
Delta-T
°C
Wind Press
QNH
hPa
Press
MSL
hPa
Rain
since 9 am
mm
Dir
 
Spd
km/h
Gust
km/h
Spd
kts
Gust
kts
03/05:30am 4.2 0.5 4.2 100 0.0 NE 13 15 7 8 1026.4 1026.3 0.6
03/05:00am 3.7 0.6 3.7 100 0.0 NNE 9 11 5 6 1026.4 1026.3 0.6
03/04:30am 3.3 1.1 3.3 100 0.0 N 4 6 2 3 1026.5 1026.4 0.6
03/04:00am 3.1 1.6 3.0 99 0.0 CALM 0 0 0 0 1026.2 1026.1 0.6
03/03:30am 3.3 1.5 3.2 99 0.0 SW 2 2 1 1 1026.1 1026.0 0.6
03/03:00am 3.2 0.6 3.1 99 0.0 SW 6 6 3 3 1026.1 1026.0 0.6
03/02:30am 5.2 2.4 5.2 100 0.0 E 9 11 5 6 1026.0 1025.9 0.6
03/02:00am 4.6 1.7 4.5 99 0.0 E 9 9 5 5 1026.2 1026.1 0.6
03/01:30am 5.0 1.8 4.9 99 0.0 E 11 11 6 6 1026.5 1026.4 0.6
03/01:00am 4.9 1.6 4.6 98 0.1 E 11 11 6 6 1026.5 1026.4 0.6
03/12:30am 4.5 1.5 4.2 98 0.1 E 9 11 5 6 1026.5 1026.4 0.6
03/12:00am 4.0 0.9 3.6 97 0.2 SSE 9 11 5 6 1026.8 1026.7 0.6
 
Date/Time
WST
Temp
°C
App
Temp
°C
Dew
Point
Rel
Hum
%
Delta-T
°C
Wind Press
QNH
hPa
Press
MSL
hPa
Rain
since 9 am
mm
Dir
 
Spd
km/h
Gust
km/h
Spd
kts
Gust
kts
02/11:30pm 4.6 3.3 4.0 96 0.3 CALM 0 4 0 2 1027.1 1027.0 0.6
02/11:00pm 6.0 3.7 5.6 97 0.2 ENE 7 7 4 4 1027.3 1027.2 0.6
02/10:30pm 6.9 4.8 6.5 97 0.2 NE 7 7 4 4 1027.4 1027.3 0.6
02/10:00pm 6.9 4.8 6.5 97 0.2 NE 7 9 4 5 1027.5 1027.4 0.6
02/09:30pm 6.5 3.9 5.9 96 0.3 ENE 9 9 5 5 1027.6 1027.5 0.6
02/09:00pm 6.5 4.2 5.8 95 0.3 E 7 9 4 5 1027.7 1027.6 0.6
02/08:30pm 7.1 4.9 6.4 95 0.3 NNE 7 7 4 4 1027.7 1027.6 0.6
02/08:00pm 7.4 5.8 6.5 94 0.4 NE 4 4 2 2 1027.6 1027.5 0.6
02/07:30pm 7.9 6.0 6.8 93 0.5 ENE 6 6 3 3 1027.1 1027.0 0.6
02/07:00pm 8.7 6.8 7.6 93 0.5 ENE 7 15 4 8 1026.7 1026.6 0.6
02/06:30pm 8.3 5.5 7.1 92 0.6 ESE 11 15 6 8 1026.5 1026.4 0.6
02/06:00pm 8.8 6.8 6.9 88 0.9 ESE 7 7 4 4 1026.2 1026.1 0.6
02/05:30pm 9.3 7.4 6.7 84 1.2 SE 6 7 3 4 1025.9 1025.8 0.6
02/05:00pm 10.1 7.6 6.4 78 1.7 SE 9 15 5 8 1025.6 1025.5 0.6
02/04:30pm 10.8 8.0 6.9 77 1.9 SE 11 17 6 9 1025.4 1025.3 0.6
02/04:00pm 11.3 7.9 7.8 79 1.7 SE 15 20 8 11 1025.3 1025.2 0.6
02/03:30pm 10.2 7.8 8.8 91 0.7 SE 11 15 6 8 1025.4 1025.3 0.6
02/03:00pm 12.6 8.9 7.9 73 2.3 SSE 17 35 9 19 1025.1 1025.0 0.6
02/02:30pm 12.0 9.0 7.5 74 2.2 SSE 13 20 7 11 1025.1 1025.0 0.6
02/02:00pm 12.2 8.9 8.1 76 2.0 SE 15 20 8 11 1025.2 1025.1 0.6
02/01:30pm 11.9 8.7 6.8 71 2.5 SSE 13 20 7 11 1025.3 1025.2 0.6
02/01:00pm 12.5 8.9 8.2 75 2.1 SE 17 24 9 13 1025.6 1025.5 0.6
02/12:30pm 10.3 7.0 9.5 95 0.4 SSE 17 26 9 14 1026.1 1026.0 0.6
02/12:00pm 9.5 4.2 8.3 92 0.6 SSE 26 39 14 21 1026.3 1026.2 0.4
02/11:30am 10.1 5.9 8.2 88 0.9 SSW 20 28 11 15 1026.3 1026.2 0.4
02/11:00am 11.8 8.8 9.2 84 1.3 SSE 15 22 8 12 1026.4 1026.3 0.4
02/10:30am 10.4 8.4 10.1 98 0.2 SSE 11 20 6 11 1026.6 1026.5 0.4
02/10:00am 10.6 9.7 10.6 100 0.0 S 6 11 3 6 1026.4 1026.3 0.0
02/09:30am 8.9 7.3 8.9 100 0.0 SW 7 13 4 7 1026.7 1026.6 0.0
02/09:00am 8.4 5.9 8.4 100 0.0 WSW 11 13 6 7 1026.8 1026.7 3.4
02/08:30am 8.4 6.9 8.4 100 0.0 WSW 6 9 3 5 1026.1 1026.0 3.2
02/08:00am 7.3 5.9 7.3 100 0.0 WNW 4 6 2 3 1025.8 1025.7 3.2
02/07:30am 6.3 4.3 6.3 100 0.0 W 6 9 3 5 1025.7 1025.6 3.2
02/07:00am 5.2 3.0 5.2 100 0.0 NW 6 7 3 4 1025.3 1025.2 3.2
02/06:30am 4.5 2.0 4.5 100 0.0 WNW 7 9 4 5 1024.9 1024.8 3.2
02/06:00am 4.9 2.6 4.9 100 0.0 NW 6 7 3 4 1024.5 1024.4 3.2
02/05:30am 3.4 0.6 3.4 100 0.0 NW 7 9 4 5 1024.3 1024.3 3.0
02/05:00am 3.5 1.0 3.5 100 0.0 NNW 6 6 3 3 1024.0 1024.0 3.0
02/04:30am 3.8 1.1 3.7 99 0.0 NW 7 9 4 5 1024.1 1024.1 3.0
02/04:00am 4.0 1.3 3.9 99 0.0 NW 7 9 4 5 1023.9 1023.9 3.0
02/03:30am 4.4 1.8 4.3 99 0.0 NW 7 13 4 7 1023.8 1023.7 3.0
02/03:00am 4.1 1.4 3.8 98 0.1 NW 7 11 4 6 1023.7 1023.6 2.8
02/02:30am 4.5 1.5 4.2 98 0.1 NW 9 13 5 7 1023.7 1023.6 2.8
02/02:00am 4.1 1.0 3.8 98 0.1 NW 9 11 5 6 1023.8 1023.7 2.8
02/01:30am 3.5 0.7 3.1 97 0.2 NW 7 7 4 4 1023.7 1023.6 2.8
02/01:00am 4.2 1.5 3.8 97 0.2 NW 7 9 4 5 1023.8 1023.7 2.8
02/12:30am 3.3 0.4 2.7 96 0.2 NW 7 9 4 5 1023.7 1023.6 2.8
02/12:00am 4.1 1.6 3.5 96 0.2 NW 6 7 3 4 1023.7 1023.6 2.8
 
Date/Time
WST
Temp
°C
App
Temp
°C
Dew
Point
Rel
Hum
%
Delta-T
°C
Wind Press
QNH
hPa
Press
MSL
hPa
Rain
since 9 am
mm
Dir
 
Spd
km/h
Gust
km/h
Spd
kts
Gust
kts
01/11:30pm 4.0 0.8 3.3 95 0.3 NW 9 13 5 7 1023.7 1023.6 2.8
01/11:00pm 4.5 2.0 3.8 95 0.3 W 6 7 3 4 1023.7 1023.6 2.8
01/10:30pm 3.8 0.6 2.9 94 0.4 SW 9 13 5 7 1023.6 1023.5 2.8
01/10:00pm 4.0 1.2 3.1 94 0.4 W 7 11 4 6 1023.8 1023.7 2.8
01/09:30pm 4.0 1.4 3.1 94 0.4 SW 6 9 3 5 1023.5 1023.4 2.8
01/09:00pm 4.0 1.2 3.0 93 0.4 WSW 7 13 4 7 1023.2 1023.1 2.8
01/08:30pm 3.9 0.7 2.9 93 0.4 W 9 11 5 6 1023.1 1023.0 2.8
01/08:00pm 4.1 1.9 3.1 93 0.4 SW 4 6 2 3 1022.9 1022.8 2.8
01/07:30pm 4.3 1.5 3.3 93 0.4 W 7 9 4 5 1022.7 1022.6 2.6
01/07:00pm 4.6 1.5 3.4 92 0.5 WSW 9 11 5 6 1022.3 1022.2 2.6
01/06:30pm 6.1 2.4 4.6 90 0.7 SW 13 17 7 9 1021.7 1021.6 2.6
01/06:00pm 6.3 3.4 4.9 91 0.6 SSW 9 19 5 10 1021.4 1021.3 2.6
01/05:30pm 6.5 3.3 5.3 92 0.5 SW 11 15 6 8 1021.0 1020.9 2.6
01/05:00pm 6.7 3.2 5.3 91 0.6 SW 13 19 7 10 1020.6 1020.5 2.4
01/04:30pm 6.7 -0.2 4.4 85 1.0 SW 30 43 16 23 1020.3 1020.2 2.4
01/04:00pm 9.8 4.9 5.2 73 2.1 WSW 20 30 11 16 1019.5 1019.4 1.8
01/03:30pm 8.4 2.6 4.4 76 1.8 SSW 24 35 13 19 1019.4 1019.3 1.8
01/03:00pm 9.5 4.8 5.9 78 1.7 S 20 30 11 16 1019.0 1018.9 1.6
01/02:30pm 10.6 4.7 5.8 72 2.2 SSW 26 41 14 22 1018.5 1018.4 1.6
01/02:11pm 10.5 3.7 4.9 68 2.6 SW 30 48 16 26 1018.3 1018.2 1.6
01/02:00pm 10.1 4.9 5.7 74 2.0 SSW 22 33 12 18 1018.3 1018.2 1.6
01/01:39pm 10.3 3.5 4.9 69 2.5 SW 30 48 16 26 1018.2 1018.1 1.6
01/01:30pm 9.9 2.7 4.9 71 2.3 SW 32 46 17 25 1018.0 1017.9 1.6
01/01:15pm 10.0 3.4 4.4 68 2.5 SSW 28 46 15 25 1017.7 1017.6 1.6
01/01:00pm 9.4 3.5 5.9 79 1.6 SSW 26 39 14 21 1017.7 1017.6 1.6
01/12:30pm 6.3 -2.6 4.9 91 0.6 SW 41 61 22 33 1018.1 1018.0 1.6
01/12:13pm 9.9 3.4 6.4 79 1.6 SSW 30 48 16 26 1017.5 1017.4 0.8
01/12:00pm 8.3 3.6 6.1 86 1.0 SSW 20 32 11 17 1017.8 1017.7 0.8
01/11:38am 9.5 2.9 6.0 79 1.6 SSW 30 67 16 36 1017.6 1017.5 0.6
01/11:30am 7.8 1.7 4.9 82 1.3 SSW 26 41 14 22 1017.6 1017.5 0.6
01/11:19am 7.3 -1.3 4.6 83 1.2 SSW 39 57 21 31 1017.5 1017.4 0.6
01/11:00am 10.3 2.8 4.7 68 2.5 SSW 33 52 18 28 1017.1 1017.0 0.6
01/10:30am 9.8 4.6 7.2 84 1.2 SW 24 39 13 21 1017.0 1016.9 0.6
01/10:00am 6.6 0.6 5.2 91 0.6 SSW 26 43 14 23 1017.2 1017.1 0.6
01/09:41am 6.7 -0.5 6.0 95 0.3 SSW 33 63 18 34 1017.0 1016.9 0.4
01/09:30am 7.8 1.5 7.4 97 0.2 SW 30 46 16 25 1016.5 1016.4 0.2
01/09:27am 8.5 3.2 8.4 99 0.0 SW 26 44 14 24 1016.5 1016.4 0.0
01/09:00am 6.1 2.0 6.1 100 0.0 W 17 22 9 12 1016.7 1016.6 10.0
01/08:30am 5.3 0.1 5.3 100 0.0 WSW 22 37 12 20 1016.2 1016.1 9.4
01/08:00am 5.4 1.5 5.3 99 0.0 WSW 15 26 8 14 1015.9 1015.7 7.6
01/07:30am 4.8 0.4 4.7 99 0.0 W 17 28 9 15 1015.4 1015.3 6.8
01/07:00am 4.7 -1.5 4.4 98 0.1 W 26 37 14 20 1014.8 1014.8 6.0
01/06:30am 4.7 -1.5 4.4 98 0.1 W 26 41 14 22 1013.8 1013.8 5.0
01/06:00am 4.6 -1.2 4.2 97 0.2 WSW 24 39 13 21 1013.8 1013.8 4.8
01/05:30am 4.6 -2.4 3.9 95 0.3 W 30 44 16 24 1013.4 1013.4 2.6
01/05:00am 4.3 -2.1 3.3 93 0.4 W 26 35 14 19 1012.9 1012.9 2.4
01/04:30am 5.0 -1.3 3.7 91 0.6 W 26 35 14 19 1013.2 1013.2 2.2
01/04:00am 4.9 -2.2 3.7 92 0.5 W 30 43 16 23 1012.6 1012.6 2.2
01/03:30am 5.1 -1.1 4.4 95 0.3 W 26 35 14 19 1012.3 1012.3 2.2
01/03:00am 5.0 -1.6 4.3 95 0.3 W 28 37 15 20 1012.2 1012.2 2.2
01/02:30am 5.6 -0.5 5.0 96 0.3 W 26 35 14 19 1012.4 1012.4 2.2
01/02:00am 5.7 0.4 5.0 95 0.3 WSW 22 32 12 17 1012.5 1012.5 2.2
01/01:30am 6.0 -0.8 5.1 94 0.4 W 30 44 16 24 1012.8 1012.8 1.8
01/01:00am 6.3 -0.5 5.3 93 0.4 W 30 44 16 24 1012.9 1012.9 1.8
01/12:30am 6.0 -0.4 5.1 94 0.4 W 28 37 15 20 1012.6 1012.6 1.8
01/12:00am 6.1 1.3 5.4 95 0.3 W 20 32 11 17 1012.7 1012.7 1.8
 
Date/Time
WST
Temp
°C
App
Temp
°C
Dew
Point
Rel
Hum
%
Delta-T
°C
Wind Press
QNH
hPa
Press
MSL
hPa
Rain
since 9 am
mm
Dir
 
Spd
km/h
Gust
km/h
Spd
kts
Gust
kts
31/11:30pm 5.9 1.0 5.2 95 0.3 W 20 28 11 15 1012.6 1012.6 1.8
31/11:00pm 6.3 1.1 5.4 94 0.4 W 22 33 12 18 1012.7 1012.7 1.8
31/10:30pm 7.2 2.2 6.3 94 0.4 W 22 30 12 16 1012.8 1012.8 1.8
31/10:00pm 7.3 2.9 6.4 94 0.4 W 19 24 10 13 1012.9 1012.9 1.8
31/09:30pm 7.3 2.7 6.7 96 0.3 W 20 30 11 16 1012.9 1012.9 1.8
31/09:00pm 7.9 3.1 7.3 96 0.3 W 22 33 12 18 1012.8 1012.8 1.8
31/08:30pm 8.0 4.2 7.7 98 0.1 WNW 17 24 9 13 1012.9 1012.9 1.8
31/08:00pm 8.2 5.2 7.9 98 0.1 WNW 13 19 7 10 1012.7 1012.7 1.8
31/07:30pm 8.7 5.1 8.3 97 0.2 WNW 17 24 9 13 1012.7 1012.7 1.8
31/07:00pm 8.8 5.5 8.2 96 0.3 NW 15 24 8 13 1012.4 1012.4 1.8
31/06:30pm 9.0 5.4 8.2 95 0.4 WNW 17 24 9 13 1012.3 1012.3 1.6
31/06:00pm 9.3 5.1 8.4 94 0.4 NW 20 30 11 16 1012.2 1012.2 1.4
31/05:35pm 9.8 4.1 8.4 91 0.7 WNW 28 48 15 26 1012.5 1012.5 0.6
31/05:30pm 10.1 3.5 8.4 89 0.8 W 33 48 18 26 1012.5 1012.5 0.4
31/05:04pm 12.2 5.5 7.3 72 2.4 WNW 32 67 17 36 1011.9 1011.8 0.0
31/05:03pm 12.8 6.5 7.3 69 2.7 WNW 30 67 16 36 1011.7 1011.6 0.0
31/05:00pm 15.1 9.6 3.9 47 5.2 WNW 22 32 12 17 1011.1 1011.0 0.0
31/04:30pm 15.7 9.4 3.5 44 5.7 NW 26 39 14 21 1010.9 1010.8 0.0
31/04:00pm 15.1 9.6 4.2 48 5.1 WNW 22 35 12 19 1011.1 1011.0 0.0
31/03:30pm 16.5 10.9 5.2 47 5.5 WNW 24 35 13 19 1011.4 1011.3 0.0
31/03:00pm 16.0 9.4 4.1 45 5.6 NW 28 43 15 23 1011.6 1011.5 0.0
31/02:30pm 15.6 9.8 4.3 47 5.3 WNW 24 39 13 21 1012.2 1012.2 0.0
31/02:00pm 15.9 10.1 4.3 46 5.5 WNW 24 37 13 20 1012.5 1012.5 0.0
31/01:30pm 15.9 9.9 5.5 50 5.0 WNW 26 37 14 20 1012.7 1012.7 0.0
31/01:00pm 16.1 9.7 5.4 49 5.2 WNW 28 39 15 21 1013.0 1013.0 0.0
31/12:30pm 15.5 10.7 5.4 51 4.9 WNW 20 32 11 17 1013.5 1013.5 0.0
31/12:00pm 14.8 11.5 8.1 64 3.4 WNW 15 26 8 14 1014.3 1014.3 0.0
31/11:30am 16.0 11.7 8.0 59 4.1 NNW 20 30 11 16 1015.0 1014.9 0.0
31/11:00am 16.6 11.9 9.1 61 3.9 NNW 24 37 13 20 1015.8 1015.7 0.0
31/10:30am 15.1 10.3 9.0 67 3.2 NNW 24 33 13 18 1016.5 1016.5 0.0
31/10:00am 13.3 9.1 8.2 71 2.6 NNW 20 35 11 19 1017.2 1017.2 0.0
31/09:30am 13.6 9.1 8.7 72 2.5 N 22 35 12 19 1017.5 1017.5 0.0
31/09:00am 12.6 8.9 9.6 82 1.5 N 19 30 10 16 1017.9 1017.9 0.0
31/08:30am 10.8 7.2 8.2 84 1.3 N 17 28 9 15 1018.1 1018.1 0.0
31/08:00am 10.6 8.1 8.0 84 1.3 N 11 15 6 8 1018.2 1018.2 0.0
31/07:30am 10.3 6.9 7.7 84 1.3 N 15 22 8 12 1018.3 1018.3 0.0
31/07:00am 9.4 7.1 7.5 88 0.9 N 9 11 5 6 1018.2 1018.2 0.0
31/06:30am 8.4 6.5 6.9 90 0.7 N 6 9 3 5 1017.8 1017.8 0.0
31/06:00am 8.4 5.9 6.7 89 0.8 N 9 13 5 7 1017.7 1017.7 0.0

Other Formats:

Comma delimited format used in spreadsheet applications
http://www.bom.gov.au/fwo/IDW60801/IDW60801.95644.axf

JavaScript Object Notation format (JSON) in row-major order
http://www.bom.gov.au/fwo/IDW60801/IDW60801.95644.json